Pink, Oklahoma
Current Conditions -  °F | °C
As of 6:58 AM on Thursday 23 Oct 2014 (Local Time) from KTIK Reporting Station
Overcast Overcast  
Wind Chill: 60°   Ceiling: 5500
Heat Index: 60°   Visibility: 10mi
Dew Point: 55°   Wind: 12mph
Humidity: 82%   Direction: 170°S
Pressure: 30.11"   Gusts: NA
Location:  35.2189°N, 97.0168°W
Report Text: KTIK 231158Z AUTO 17010KT 10SM OVC055 16/13 A3011 RMK AO2 SLP196 70008 T01570127 10174 20157 52004 $
Loading
Personal Weather Stations






























Interactive Weather Map
Tropical Storm Tracking
New forecast layout! Learn more

10-Day Weather Forecast

Advertisements
Track Severe Weather on mobile